Regional Weather

 

KMKL - Jackson, TN, USA
Distance from station: WNW 50mi, 81km
Updated: Mon, Apr-23-2018 3:53am CDT
Overcast
Overcast
 Wind from SSW
Wind: SSW 9 mph , 15 km/h
Temperature: 57°F , 14°C
Dew Point: 57°F , 14°C
Humidity: 100%
Barometer: 29.77 inHg , 1008.1 hPa
Clouds: Overcast
Visibility: 10 miles , 16 km
Cloud details: Overcast 400 ft
2018/04/23 08:53 KMKL 230853Z AUTO 20008KT 10SM OVC004 14/14 A2977 RMK AO2 SLP080 60002 T01440144 55000
KMEM - Memphis, TN, USA
Distance from station: W 108mi, 173km
Updated: Mon, Apr-23-2018 3:54am CDT
Light drizzle, Mist, Overcast
Light drizzle, Mist, Overcast
 Wind from W
Wind: W 8 mph , 13 km/h
Temperature: 55°F , 13°C
Dew Point: 55°F , 13°C
Humidity: 100%
Barometer: 29.80 inHg , 1009.1 hPa
Summary: Light drizzle, Mist
Clouds: Overcast
Visibility: 1/2 mile , 0.8 km
Cloud details: Overcast 500 ft
2018/04/23 08:54 KMEM 230854Z 26007KT 1/2SM R36L/P6000FT -DZ BR OVC005 13/13 A2980 RMK AO2 SFC VIS 5 SLP089 P0001 60001 T01330133 53002 $
 
KBNA - Nashville, TN, USA
Distance from station: NE 97mi, 157km
Updated: Mon, Apr-23-2018 4:22am CDT
Overcast
Overcast
 Wind from SE
Wind: SE 10 mph , 17 km/h, Gust: 22 mph , 35 km/h
Temperature: 57°F , 14°C
Dew Point: 55°F , 13°C
Humidity: 94%
Barometer: 29.87 inHg , 1011.5 hPa
Clouds: Overcast
Visibility: 10 miles , 16 km
Cloud details: Partly cloudy 2200 ft
Mostly cloudy 2900 ft
Overcast 3500 ft
2018/04/23 09:22 KBNA 230922Z 14009G19KT 10SM SCT022 BKN029 OVC035 14/13 A2987 RMK AO2 RAE05 P0000 T01440133 $
KCKV - Clarksville, TN, USA
Distance from station: NNE 99mi, 159km
Updated: Mon, Apr-23-2018 4:05am CDT
Mist, Overcast
Mist, Overcast
 Wind from ESE
Wind: ESE 17 mph , 28 km/h, Gust: 31 mph , 50 km/h
Temperature: 57°F , 14°C
Dew Point: 54°F , 12°C
Humidity: 88%
Barometer: 29.81 inHg , 1009.5 hPa
Summary: Mist
Clouds: Overcast
Visibility: 5 miles , 8 km
Cloud details: Overcast 1300 ft
2018/04/23 09:05 KCKV 230905Z AUTO 12015G27KT 5SM BR OVC013 14/12 A2981 RMK AO2 PK WND 12027/0902 RAE02 P0000 T01440122
 
KPAH - Paducah, KY, USA
Distance from station: NNW 128mi, 205km
Updated: Mon, Apr-23-2018 3:53am CDT
Light rain, Mist, Overcast
Light rain, Mist, Overcast
 Wind from ENE
Wind: ENE 22 mph , 35 km/h, Gust: 35 mph , 56 km/h
Temperature: 55°F , 13°C
Dew Point: 52°F , 11°C
Humidity: 88%
Barometer: 29.76 inHg , 1007.8 hPa
Summary: Light rain, Mist
Clouds: Overcast
Visibility: 3 miles , 5 km
Cloud details: Overcast 900 ft
2018/04/23 08:53 KPAH 230853Z AUTO 06019G30KT 3SM -RA BR OVC009 13/11 A2976 RMK AO2 PK WND 05030/0852 CIG 006V013 SLP075 P0010 60072 T01280111 56035
KCHA - Chattanooga, TN, USA
Distance from station: E 165mi, 265km
Updated: Mon, Apr-23-2018 3:53am CDT
Light rain, Mist, Overcast
Light rain, Mist, Overcast
 Wind from varies
Wind: varies 7 mph , 11 km/h
Temperature: 57°F , 14°C
Dew Point: 55°F , 13°C
Humidity: 94%
Barometer: 29.96 inHg , 1014.6 hPa
Summary: Light rain, Mist
Clouds: Overcast
Visibility: 5 miles , 8 km
Cloud details: Few Clouds 1100 ft
Mostly cloudy 3400 ft
Overcast 5500 ft
2018/04/23 08:53 KCHA 230853Z AUTO VRB06KT 5SM -RA BR FEW011 BKN034 OVC055 14/13 A2996 RMK AO2 SLP144 P0011 60027 T01440128 56006
 
KTYS - Knoxville, TN, USA
Distance from station: E 234mi, 377km
Updated: Mon, Apr-23-2018 3:53am CDT
Light rain, Overcast
Light rain, Overcast
 Wind from NNE
Wind: NNE 14 mph , 22 km/h
Temperature: 55°F , 13°C
Dew Point: 54°F , 12°C
Humidity: 94%
Barometer: 29.98 inHg , 1015.2 hPa
Summary: Light rain
Clouds: Overcast
Visibility: 9 miles , 14 km
Cloud details: Mostly cloudy 8500 ft
Overcast 11000 ft
2018/04/23 08:53 KTYS 230853Z 02012KT 9SM -RA BKN085 OVC110 13/12 A2998 RMK AO2 SLP148 P0007 60016 T01280122 56016
KLIT - Little Rock, AR, USA
Distance from station: W 240mi, 386km
Updated: Mon, Apr-23-2018 3:53am CDT
Overcast
Overcast
 Wind from WNW
Wind: WNW 10 mph , 17 km/h
Temperature: 55°F , 13°C
Dew Point: 52°F , 11°C
Humidity: 88%
Barometer: 29.88 inHg , 1011.9 hPa
Clouds: Overcast
Visibility: 10 miles , 16 km
Cloud details: Mostly cloudy 1100 ft
Overcast 3000 ft
2018/04/23 08:53 KLIT 230853Z 29009KT 10SM BKN011 OVC030 13/11 A2988 RMK AO2 SLP119 T01280111 56008

Refresh Page for latest data.